KVKS/VKS METAR and TAF weather

Enter ICAO airport designator
Station Type Date Time Source
KVKS METAR 2023/09/28 21:55 UTC NOAA

KVKS 282155Z AUTO 04006KT 10SM CLR 32/19 A2992 RMK A01


Station Type Date Time Source
KVKS Decoded METAR 2023/09/28 21:55 UTC NOAA

Vicksburg Municipal, MS, United States (KVKS) 32-14N 090-56W
Sep 28, 2023 - 05:55 PM EDT / 2023.09.28 2155 UTC
Wind: from the NE (040 degrees) at 7 MPH (6 KT):0
Visibility: 10 mile(s):0
Sky conditions: clear
Temperature: 89 F (32 C)
Dew Point: 66 F (19 C)
Relative Humidity: 46%
Pressure (altimeter): 29.92 in. Hg (1013 hPa)
ob: KVKS 282155Z AUTO 04006KT 10SM CLR 32/19 A2992 RMK A01
cycle: 22

Station Type Date Time Source
KVKS TAF UTC NOAA

Error!

Example: see airport list